Terminal Aerodrome Forecast
Issued by NWS

Home | Current Version | Previous Version | Text Only | Print | Product List | Glossary On
Versions: 1 2 3 4 5 6 7 8 9 10 11 12 13 14 15 16 17 18 19 20 21 22 23 24 25 26 27 28 29 30
000
FTUS43 KILX 301413 AAB
TAFBMI
TAF AMD
KBMI 301413Z 3014/0112 10015G20KT 3SM BR VCSH OVC002
      TEMPO 3014/3017 6SM BR OVC004
     FM301700 12015G22KT 4SM -SHRA BR VCTS OVC004CB
     FM301900 15015G24KT 3SM SHRA VCTS OVC008CB
     FM302300 16018G27KT 3SM SHRA VCTS OVC010CB
     FM010300 19014G25KT P6SM BKN040
     FM010500 22012G22KT P6SM BKN045=

USA.gov is the U.S. government's official web portal to all federal, state and local government web resources and services.